Skip Navigation Linkwww.weather.gov 
NOAA Logo - Click to go to the NOAA homepage National Weather Service   NWS logo - Click to go to the NWS homepage
Alaska Region Headquarters
Top left navbar Home Site Map National News Organization
  Nav bar end cap
Follow the National Weather Service Alaska Region on Facebook Follow the National Weather Service in Alaska on Twitter
UsaGov
Show Raw Observations
Anchorage International Airport Observations
Date AK
Time
Weather/Sky Visibility
(Miles)
Clouds Temperature (°F) R.H. Wind
Chill
Wind
(mph)
Peak
Wind
Pressure Precip(in.)
Air Dew
Pt
6 hour Altimeter
(in.)
Sea
Level
(mb)
1 hr 3 hr 6 hr
Max Min
03/02 14:53 Cloudy 10 BKN100 OVC200 31 19 31 22 61% 25 N5   30.15 1021.0↓      
03/02 13:53 Cloudy 10 BKN100 OVC150 29 18     63% 23 NE5   30.16 1021.7       
03/02 12:53 Mostly cloudy 10 BKN110 BKN160 28 17     63% 21 NNE6   30.20 1022.8       
03/02 11:53 Mostly cloudy 10 BKN110 BKN160 26 17     68% 20 NE4   30.23 1024.0↓      
03/02 10:53 Mostly cloudy 10 SCT130 BKN160 25 16     68% 17 NE6   30.24 1024.5       
03/02 09:53 Mostly cloudy 10 SCT130 BKN160 24 16     71% 16 NNE6   30.25 1024.6       
03/02 08:53 Cloudy 10 SCT130 OVC160 22 15 25 22 74% 14 ENE6   30.27 1025.3↓      
03/02 07:53 Cloudy 10 OVC170 22 16     77% 22 Calm   30.28 1025.8       
03/02 06:53 Light Fog 10 OVC170 22 17     81% 22 Calm   30.30 1026.3       
03/02 05:53 Light Fog 10 OVC170 24 21     88% 24 Calm   30.31 1026.6↓      
03/02 04:53 Light Fog 10 FEW002 SCT006 OVC170 23 19     84% 23 Calm   30.32 1027.2       
03/02 04:29 Cloudy 8 FEW002 SCT006 OVC170 23 21     92% 23 Calm   30.33 1027.4       
03/02 03:53 Light Fog 1 1/2 VV001 23 18     81% 23 ENE3   30.35 1028.0       
03/02 03:50 Light Fog 1 1/2 VV001 23 18     81% 17 ENE4   30.35 1028.1       
03/02 03:17 Freezing Fog 1/4 VV001 25 21     84% 25 Calm   30.36 1028.4       
03/02 02:53 Freezing Fog 1/4 OVC003 24 21 27 22 88% 24 Calm   30.38 1028.9↓      
03/02 01:53 Freezing Fog 1/4 OVC003 22 20     92% 22 Calm   30.40 1029.9       
03/02 01:42 Freezing Fog 1/4 OVC003 21 19     92% 21 S3   30.41 1030.2       
03/02 01:38 Freezing Fog 1/2 OVC003 25 19     78% 25 S3   30.41 1030.1       
03/02 01:32 Light Fog 1 1/2 OVC003 23 19     84% 23 S3   30.41 1030.1       
03/02 01:28 Light Fog 2 OVC003 23 19     84% 23 Calm   30.41 1030.1       
03/02 00:53 Cloudy 10 BKN003 OVC050 25 21     84% 25 S3   30.42 1030.4       
03/02 00:50 Cloudy 10 BKN003 OVC050 25 21     84% 25 N3   30.42 1030.5       
Date AK
Time
Weather/Sky Visibility
(Miles)
Clouds Temperature (°F) R.H. Wind
Chill
Wind
(mph)
Peak
Wind
Pressure Precip(in.)
Air Dew
Pt
6 hour Altimeter
(in.)
Sea
Level
(mb)
1 hr 3 hr 6 hr
Max Min
03/01 23:53 Light Fog 10 FEW050 OVC250 22 19     88% 22 Calm   30.43 1030.9↓      
03/01 22:53 Light Fog 10 OVC240 23 20     88% 23 Calm   30.44 1031.2       
03/01 21:53 Light Fog 10 OVC240 24 20     84% 24 Calm   30.44 1031.3       
03/01 20:53 Light Fog 10 OVC200 25 22 29 24 88% 19 S4   30.45 1031.4↓      
03/01 19:53 Cloudy 10 OVC200 25 21     84% 25 S3   30.47 1032.1       
03/01 18:53 Mostly cloudy 10 BKN200 26 22     85% 26 SSE3   30.48 1032.5       
03/01 17:53 Mostly cloudy 10 FEW005 BKN200 27 24     88% 22 SE4   30.50 1033.1↓      
03/01 16:53 Partly cloudy 10 FEW005 SCT015 SCT200 28 24     85% 28 E3   30.51 1033.4       
03/01 16:24 Partly cloudy 10 FEW002 SCT005 28 25     88% 23 ENE4   30.51 1033.5       
03/01 15:53 Mostly cloudy 7 FEW002 BKN005 28 25     88% 28 N3   30.51 1033.6       
03/01 14:53 Cloudy 7 SCT002 OVC005 29 25 30 27 85% 24 NNE4   30.52 1033.8↓ T   T
03/01 13:53 Snow/Light Fog 4 SCT003 BKN007 29 25     85% 22 NNE6   30.54 1034.3  T    
03/01 13:31 Snow/Light Fog 3 SCT002 OVC007 28 25     88% 22 NNE5   30.55 1034.9  T    
03/01 13:19 Snow/Light Fog 2 SCT002 OVC004 28 25     88% 20 NE8   30.55 1034.9  T    
03/01 12:53 Light Fog 1 1/2 SCT002 OVC004 28 24     85% 21 NNE6   30.55 1034.7       
03/01 12:41 Light Fog 3/4 OVC004 28 25     88% 22 NNE5   30.55 1034.9       
03/01 12:20 Freezing Fog 1/2 OVC004 28 25     88% 22 N5   30.55 1034.9       
03/01 12:14 Light Fog 3/4 OVC004 28 25     88% 21 N6   30.54 1034.5       
03/01 12:01 Light Fog 2 OVC004 28 25     88% 20 NNE8   30.54 1034.5       
03/01 11:53 Light Fog 1 OVC004 28 24     85% 21 NE6   30.54 1034.5→   T  
03/01 11:45 Light Fog 1 OVC004 28 25     88% 22 NE5   30.54 1034.5       
03/01 11:04 Light Fog 1 BKN002 OVC004 28 25     88% 21 NNE6   30.55 1034.9       
03/01 11:01 Light Fog 3/4 BKN002 OVC004 28 25     88% 23 NNE4   30.55 1034.9       
03/01 10:53 Freezing Fog 1/4 BKN002 OVC004 29 24     81% 23 NNE5   30.55 1034.7  T    
03/01 10:28 Snow/Fog 1/4 VV002 27 23     85% 22 N4   30.55 1034.9  T    
03/01 09:53 Snow/Fog 1/4 VV002 28 24     85% 21 NNE6   30.55 1034.7  T    
03/01 08:53 Snow/Fog 1/4 VV002 27 23 29 26 85% 27 NNE3   30.54 1034.5↑ T   T
03/01 07:53 Freezing Fog 1/4 VV002 27 24     88% 27 Calm   30.54 1034.3       
03/01 07:16 Freezing Fog 1/4 VV002 28 25     88% 28 NE3   30.52 1033.8       
03/01 07:00 Freezing Fog 1/4 VV002 28 25     88% 23 NE4   30.53 1034.2       
03/01 06:53 Freezing Fog 1/4 VV002 29 25     85% 24 NNE4   30.53 1034.1       
03/01 05:53 Freezing Fog 1/4 VV002 27 23     85% 20 NNW5   30.52 1033.8↑      
03/01 04:53 Freezing Fog 1/4 VV002 27 24     88% 27 Calm   30.51 1033.6       
03/01 04:10 Freezing Fog 1/4 VV002 27 25     92% 27 NW3   30.51 1033.5       
03/01 03:53 Freezing Fog 1/4 VV001 26 24     92% 20 W4   30.51 1033.4       
03/01 03:25 Freezing Fog 1/4 VV001 27 25     92% 20 NW6   30.50 1033.2       
03/01 03:15 Freezing Fog 1/4 VV001 27 25     92% 20 NW5   30.50 1033.2       
03/01 02:53 Freezing Fog 1/4 VV001 28 25 32 27 88% 28 NW3   30.49 1032.8↑     T
03/01 01:53 Freezing Fog 1/4 VV001 29 27     92% 29 Calm   30.47 1031.9       
03/01 00:53 Freezing Fog 1/4 VV001 29 28     96% 29 Calm   30.45 1031.3       
Date AK
Time
Weather/Sky Visibility
(Miles)
Clouds Temperature (°F) R.H. Wind
Chill
Wind
(mph)
Peak
Wind
Pressure Precip(in.)
Air Dew
Pt
6 hour Altimeter
(in.)
Sea
Level
(mb)
1 hr 3 hr 6 hr
Max Min
02/28 23:53 Freezing Fog 1/4 VV001 30 27     88% 24 ENE5   30.44 1030.9↑   T  
02/28 23:39 Freezing Fog 1/4 VV001 28 25     88% 23 NE4   30.44 1031.1       
02/28 23:22 Freezing Fog 1/4 BKN003 OVC020 28 27     96% 28 Calm   30.42 1030.4       
02/28 22:53 Partly cloudy 7 FEW003 SCT020 SCT045 30 27     88% 24 E5   30.40 1029.8       
02/28 22:12 Partly cloudy 7 FEW004 SCT021 SCT045 30 27     88% 25 N4   30.39 1029.4       
02/28 21:53 Cloudy 7 SCT004 OVC021 31 28     88% 25 ENE5   30.39 1029.4  T    
02/28 21:39 Cloudy 7 SCT004 OVC019 30 28     92% 30 NE3   30.39 1029.4  T    
02/28 21:27 7 SCT004 OVC019 30 28     92% 30 NE3   30.38 1029.1  T    
02/28 20:53 FreezingDrizzl 5 OVC004 31 28 32 29 88% 31 Calm   30.37 1028.5↑ T   0.04
02/28 20:50 FreezingDrizzl 5 OVC004 30 28     92% 30 Calm   30.37 1028.7  T    
02/28 20:31 Light Fog 5 BKN004 OVC014 30 28     92% 25 N4   30.36 1028.4  T    
02/28 20:15 Light Fog 5 FEW001 BKN014 OVC019 30 28     92% 25 N4   30.36 1028.4  T    
02/28 19:53 FreezingDrizzl 5 BKN014 OVC019 31 29     92% 31 Calm   30.35 1027.9  T    
02/28 19:19 FreezingDrizzl 3 BKN014 OVC020 30 28     92% 30 Calm   30.32 1027.0  T    
02/28 18:53 Cloudy 7 BKN016 BKN025 OVC038 31 27     85% 31 NNW3   30.31 1026.5  T    
02/28 18:14 Cloudy 7 FEW005 BKN019 OVC026 30 28     92% 30 ENE3   30.29 1026.0  T    
02/28 18:05 7 FEW005 BKN019 OVC026 30 28     92% 24 ESE5   30.28 1025.7  T    
02/28 17:53 FreezingDrizzl 2 OVC019 31 28     88% 24 ESE6   30.28 1025.6↑ 0.01 0.04  
02/28 17:49 FreezingDrizzl 2 OVC019 30 28     92% 23 E6   30.28 1025.7  0.01    
02/28 17:06 FreezingDrizzl 1 OVC019 30 27     88% 24 NE5   30.29 1026.0  T    
02/28 16:53 Snow/Light Fog 1 1/4 OVC021 30 27     88% 30 Calm   30.29 1025.8  0.02    
02/28 16:35 Snow 1 1/2 OVC021 28 27     96% 28 NNW3   30.28 1025.7  0.01    
02/28 16:25 Snow/Light Fog 3 OVC021 28 27     96% 28 Calm   30.28 1025.7  T    
02/28 15:53 Snow/Light Fog 1 1/2 OVC024 29 25     85% 29 Calm   30.26 1025.1  0.01    
02/28 15:34 Snow/Light Fog 1 1/2 OVC026 28 25     88% 23 NW4   30.26 1025.0  0.01    

Alaska Region Headquarters
222 West 7th Avenue #23
Anchorage, AK 99513-7575
Voice: 1-907-271-5088
Fax: 1-907-271-3711
Recorded Forecast: 1-800-472-0391
Webmaster Email: ARH Webauthors
Page Modified: 03 Feb 2008 18:00 UTC
About Us
Career Opportunities
Glossary
Credits
Disclaimer
Privacy Policy